createdAt,value
2023-03-06T00:01:08.361Z,100821.27
2023-03-06T00:03:36.606Z,100822.59
2023-03-06T00:06:04.858Z,100825.69
2023-03-06T00:08:32.927Z,100821.93
2023-03-06T00:11:01.364Z,100827.35
2023-03-06T00:13:33.651Z,100826.88
2023-03-06T00:16:02.931Z,100825.16
2023-03-06T00:18:33.436Z,100825.55
2023-03-06T00:21:01.454Z,100821.30
2023-03-06T00:23:29.775Z,100823.68
2023-03-06T00:25:58.212Z,100823.59
2023-03-06T00:28:26.629Z,100825.58
2023-03-06T00:30:54.621Z,100825.09
2023-03-06T00:33:22.402Z,100826.16
2023-03-06T00:35:50.418Z,100824.50
2023-03-06T00:38:18.488Z,100822.66
2023-03-06T00:40:46.317Z,100823.54
2023-03-06T00:43:14.301Z,100821.31
2023-03-06T00:45:43.132Z,100824.52
2023-03-06T00:48:10.956Z,100824.65
2023-03-06T00:50:38.986Z,100823.95
2023-03-06T00:53:07.167Z,100822.34
2023-03-06T00:55:36.005Z,100819.00
2023-03-06T00:58:08.067Z,100823.49
2023-03-06T01:00:36.462Z,100823.58
2023-03-06T01:03:04.846Z,100822.75
2023-03-06T01:05:35.673Z,100819.45
2023-03-06T01:08:05.834Z,100820.25
2023-03-06T01:10:38.312Z,100822.91
2023-03-06T01:13:06.542Z,100826.06
2023-03-06T01:15:34.617Z,100820.92
2023-03-06T01:18:03.857Z,100820.64
2023-03-06T01:20:32.347Z,100819.80
2023-03-06T01:23:01.108Z,100817.36
2023-03-06T01:25:29.984Z,100817.91
2023-03-06T01:28:03.180Z,100821.02
2023-03-06T01:30:33.537Z,100820.20
2023-03-06T01:33:04.928Z,100817.44
2023-03-06T01:35:35.318Z,100821.89
2023-03-06T01:38:05.128Z,100818.53
2023-03-06T01:40:36.898Z,100822.33
2023-03-06T01:43:32.670Z,100825.16
2023-03-06T01:46:22.544Z,100823.61
2023-03-06T01:49:06.015Z,100825.96
2023-03-06T01:51:58.997Z,100827.17
2023-03-06T01:54:42.332Z,100821.56
2023-03-06T01:57:38.125Z,100820.94
2023-03-06T02:00:45.347Z,100818.58
2023-03-06T02:03:24.664Z,100815.29
2023-03-06T02:05:53.973Z,100815.61
2023-03-06T02:08:23.743Z,100818.98
2023-03-06T02:11:29.603Z,100818.63
2023-03-06T02:13:58.084Z,100818.69
2023-03-06T02:16:30.337Z,100818.06
2023-03-06T02:19:01.404Z,100819.45
2023-03-06T02:21:36.834Z,100823.67
2023-03-06T02:24:36.429Z,100823.22
2023-03-06T02:27:06.873Z,100819.41
2023-03-06T02:29:35.055Z,100819.52
2023-03-06T02:32:05.347Z,100827.55
2023-03-06T02:34:39.496Z,100829.34
2023-03-06T02:37:10.394Z,100836.70
2023-03-06T02:39:49.292Z,100838.48
2023-03-06T02:42:23.775Z,100840.48
2023-03-06T02:44:54.679Z,100844.74
2023-03-06T02:47:22.855Z,100843.48
2023-03-06T02:49:50.872Z,100842.98
2023-03-06T02:52:19.353Z,100846.90
2023-03-06T02:54:49.051Z,100848.11
2023-03-06T02:57:17.939Z,100852.19
2023-03-06T02:59:48.570Z,100854.27
2023-03-06T03:02:17.038Z,100855.90
2023-03-06T03:04:45.705Z,100855.37
2023-03-06T03:07:14.581Z,100854.94
2023-03-06T03:09:43.487Z,100858.34
2023-03-06T03:12:12.085Z,100860.31
2023-03-06T03:14:40.235Z,100861.74
2023-03-06T03:17:09.171Z,100861.98
2023-03-06T03:19:37.148Z,100866.17
2023-03-06T03:22:05.841Z,100866.17
2023-03-06T03:24:33.958Z,100867.39
2023-03-06T03:27:02.493Z,100866.02
2023-03-06T03:29:30.479Z,100869.13
2023-03-06T03:31:59.603Z,100869.84
2023-03-06T03:34:29.385Z,100875.53
2023-03-06T03:37:00.186Z,100880.88
2023-03-06T03:39:28.229Z,100878.70
2023-03-06T03:41:56.428Z,100875.86
2023-03-06T03:44:25.411Z,100873.95
2023-03-06T03:46:53.685Z,100876.99
2023-03-06T03:49:22.930Z,100882.95
2023-03-06T03:51:52.134Z,100880.27
2023-03-06T03:54:20.938Z,100878.48
2023-03-06T03:56:49.756Z,100876.59
2023-03-06T03:59:23.818Z,100878.45
2023-03-06T04:02:06.512Z,100880.73
2023-03-06T04:04:38.881Z,100882.99
2023-03-06T04:07:07.634Z,100887.91
2023-03-06T04:09:36.073Z,100886.44
2023-03-06T04:12:05.598Z,100886.51
2023-03-06T04:14:35.200Z,100886.25
2023-03-06T04:17:04.460Z,100884.60
2023-03-06T04:19:32.759Z,100885.37
2023-03-06T04:22:02.117Z,100888.69
2023-03-06T04:24:31.857Z,100886.92
2023-03-06T04:27:00.174Z,100888.52
2023-03-06T04:29:29.829Z,100890.15
2023-03-06T04:31:58.225Z,100897.50
2023-03-06T04:34:26.386Z,100901.05
2023-03-06T04:36:54.633Z,100905.96
2023-03-06T04:39:22.474Z,100911.96
2023-03-06T04:41:50.854Z,100909.68
2023-03-06T04:44:18.879Z,100911.14
2023-03-06T04:46:49.579Z,100910.73
2023-03-06T04:49:17.850Z,100914.38
2023-03-06T04:51:45.964Z,100915.52
2023-03-06T04:54:14.645Z,100925.23
2023-03-06T04:56:42.577Z,100922.18
2023-03-06T04:59:11.111Z,100919.66
2023-03-06T05:01:39.736Z,100920.10
2023-03-06T05:04:07.968Z,100926.09
2023-03-06T05:06:37.200Z,100928.38
2023-03-06T05:09:05.446Z,100930.74
2023-03-06T05:11:34.034Z,100927.98
2023-03-06T05:14:03.255Z,100929.59
2023-03-06T05:16:31.306Z,100924.38
2023-03-06T05:18:59.460Z,100923.52
2023-03-06T05:21:27.235Z,100924.59
2023-03-06T05:23:55.960Z,100925.84
2023-03-06T05:26:26.819Z,100925.90
2023-03-06T05:28:54.860Z,100927.46
2023-03-06T05:31:23.162Z,100925.55
2023-03-06T05:33:51.478Z,100925.65
2023-03-06T05:36:19.558Z,100929.02
2023-03-06T05:38:47.531Z,100931.83
2023-03-06T05:41:18.203Z,100930.85
2023-03-06T05:43:47.626Z,100935.84
2023-03-06T05:46:15.887Z,100940.90
2023-03-06T05:48:46.811Z,100942.19
2023-03-06T05:51:15.237Z,100943.54
2023-03-06T05:53:44.530Z,100945.02
2023-03-06T05:56:14.807Z,100941.41
2023-03-06T05:58:45.774Z,100946.09
2023-03-06T06:01:18.409Z,100943.81
2023-03-06T06:03:48.627Z,100947.30
2023-03-06T06:06:17.523Z,100952.13
2023-03-06T06:08:45.840Z,100954.48
2023-03-06T06:11:15.407Z,100952.53
2023-03-06T06:13:48.104Z,100956.82
2023-03-06T06:16:16.617Z,100954.90
2023-03-06T06:19:17.911Z,100950.98
2023-03-06T06:21:48.605Z,100955.59
2023-03-06T06:24:20.051Z,100957.48
2023-03-06T06:26:59.011Z,100962.52
2023-03-06T06:29:29.636Z,100962.32
2023-03-06T06:32:00.617Z,100962.21
2023-03-06T06:34:39.091Z,100963.80
2023-03-06T06:37:11.754Z,100965.20
2023-03-06T06:40:13.478Z,100967.91
2023-03-06T06:42:43.043Z,100968.98
2023-03-06T06:45:12.404Z,100973.70
2023-03-06T06:48:00.666Z,100974.25
2023-03-06T06:50:30.197Z,100977.41
2023-03-06T06:52:59.924Z,100976.36
2023-03-06T06:55:28.390Z,100977.10
2023-03-06T06:57:56.836Z,100978.09
2023-03-06T07:00:27.204Z,100976.16
2023-03-06T07:02:55.360Z,100983.41
2023-03-06T07:05:26.596Z,100985.67
2023-03-06T07:07:55.020Z,100983.59
2023-03-06T07:10:24.851Z,100986.55
2023-03-06T07:12:54.117Z,100992.73
2023-03-06T07:15:30.356Z,100992.91
2023-03-06T07:18:01.300Z,100993.22
2023-03-06T07:20:31.340Z,100995.17
2023-03-06T07:22:59.709Z,100995.39
2023-03-06T07:28:21.570Z,100995.84
2023-03-06T07:30:54.255Z,100998.04
2023-03-06T07:33:22.726Z,101000.31
2023-03-06T07:35:50.926Z,101001.95
2023-03-06T07:38:20.648Z,101005.98
2023-03-06T07:40:53.116Z,101006.50
2023-03-06T07:43:21.212Z,101003.23
2023-03-06T07:46:00.373Z,101002.89
2023-03-06T07:48:28.594Z,101002.33
2023-03-06T07:51:09.576Z,101005.27
2023-03-06T07:53:37.952Z,101004.39
2023-03-06T07:56:11.131Z,101008.37
2023-03-06T07:58:44.898Z,101010.58
2023-03-06T08:01:19.143Z,101006.73
2023-03-06T08:03:49.419Z,101011.44
2023-03-06T08:06:25.955Z,101010.55
2023-03-06T08:08:55.439Z,101015.90
2023-03-06T08:11:29.887Z,101012.55
2023-03-06T08:13:59.575Z,101013.52
2023-03-06T08:16:30.420Z,101012.63
2023-03-06T08:19:02.621Z,101013.62
2023-03-06T08:21:32.066Z,101016.13
2023-03-06T08:24:04.763Z,101015.27
2023-03-06T08:26:34.612Z,101018.89
2023-03-06T08:29:13.063Z,101017.08
2023-03-06T08:32:00.036Z,101023.43
2023-03-06T08:34:43.328Z,101024.52
2023-03-06T08:37:26.843Z,101028.58
2023-03-06T08:40:06.566Z,101033.21
2023-03-06T08:42:35.871Z,101030.05
2023-03-06T08:45:06.735Z,101024.55
2023-03-06T08:47:41.464Z,101025.55
2023-03-06T08:50:11.601Z,101029.47
2023-03-06T08:52:41.188Z,101027.55
2023-03-06T08:55:09.754Z,101031.88
2023-03-06T08:57:46.656Z,101028.41
2023-03-06T09:00:15.708Z,101030.95
2023-03-06T09:02:46.451Z,101031.94
2023-03-06T09:05:16.714Z,101035.08
2023-03-06T09:07:45.824Z,101034.29
2023-03-06T09:10:17.004Z,101035.67
2023-03-06T09:12:54.402Z,101040.64
2023-03-06T09:15:28.729Z,101043.38
2023-03-06T09:17:58.814Z,101041.07
2023-03-06T09:20:28.054Z,101047.85
2023-03-06T09:22:58.805Z,101047.58
2023-03-06T09:25:27.094Z,101052.52
2023-03-06T09:28:10.078Z,101049.28
2023-03-06T09:30:40.756Z,101052.05
2023-03-06T09:33:10.531Z,101057.48
2023-03-06T09:35:55.068Z,101056.34
2023-03-06T09:38:27.620Z,101054.91
2023-03-06T09:41:41.155Z,101057.46
2023-03-06T09:44:23.037Z,101055.85
2023-03-06T09:46:54.469Z,101057.83
2023-03-06T09:50:00.923Z,101052.98
2023-03-06T09:53:04.960Z,101059.90
2023-03-06T09:55:37.737Z,101063.18
2023-03-06T09:58:27.236Z,101062.09
2023-03-06T10:01:38.081Z,101065.31
2023-03-06T10:04:49.863Z,101066.03
2023-03-06T10:07:33.141Z,101068.05
2023-03-06T10:10:38.784Z,101066.95
2023-03-06T10:13:42.760Z,101064.64
2023-03-06T10:16:31.540Z,101069.08
2023-03-06T10:19:04.800Z,101066.66
2023-03-06T10:22:03.756Z,101065.88
2023-03-06T10:24:53.105Z,101060.11
2023-03-06T10:27:58.161Z,101053.89
2023-03-06T10:30:42.267Z,101053.26
2023-03-06T10:33:42.127Z,101054.17
2023-03-06T10:36:17.577Z,101048.89
2023-03-06T10:38:48.078Z,101048.08
2023-03-06T10:41:32.075Z,101046.47
2023-03-06T10:44:01.140Z,101047.23
2023-03-06T10:46:44.546Z,101044.02
2023-03-06T10:49:37.529Z,101037.70
2023-03-06T10:52:21.292Z,101038.52
2023-03-06T10:54:51.662Z,101031.61
2023-03-06T10:57:32.532Z,101030.59
2023-03-06T11:00:05.953Z,101030.61
2023-03-06T11:02:40.500Z,101028.56
2023-03-06T11:05:20.632Z,101028.35
2023-03-06T11:08:00.923Z,101029.20
2023-03-06T11:10:37.106Z,101025.47
2023-03-06T11:13:22.381Z,101023.42
2023-03-06T11:16:05.646Z,101025.03
2023-03-06T11:18:43.552Z,101018.23
2023-03-06T11:21:36.756Z,101016.88
2023-03-06T11:24:19.140Z,101010.02
2023-03-06T11:26:59.180Z,101011.16
2023-03-06T11:29:45.138Z,101008.64
2023-03-06T11:32:23.454Z,101005.05
2023-03-06T11:35:06.498Z,100996.86
2023-03-06T11:37:58.661Z,100996.17
2023-03-06T11:40:49.317Z,100998.29
2023-03-06T11:43:36.353Z,100996.05
2023-03-06T11:46:17.541Z,100993.66
2023-03-06T11:49:24.206Z,100994.46
2023-03-06T11:52:01.329Z,100993.27
2023-03-06T11:54:44.207Z,100988.88
2023-03-06T11:57:42.440Z,100992.76
2023-03-06T12:00:40.575Z,100992.23
2023-03-06T12:03:31.662Z,100993.47
2023-03-06T12:06:34.780Z,100994.01
2023-03-06T12:09:33.112Z,100989.23
2023-03-06T12:12:24.364Z,100989.91
2023-03-06T12:15:52.612Z,100985.21
2023-03-06T12:18:55.989Z,100985.70
2023-03-06T12:22:08.985Z,100980.52
2023-03-06T12:24:53.547Z,100981.27
2023-03-06T12:27:50.252Z,100980.17
2023-03-06T12:30:41.034Z,100976.63
2023-03-06T12:33:31.610Z,100974.83
2023-03-06T12:36:38.822Z,100972.64
2023-03-06T12:39:56.356Z,100976.64
2023-03-06T12:43:06.307Z,100974.54
2023-03-06T12:45:38.789Z,100975.16
2023-03-06T12:48:37.047Z,100975.97
2023-03-06T12:51:12.940Z,100977.93
2023-03-06T12:53:47.365Z,100977.55
2023-03-06T12:56:17.860Z,100975.17
2023-03-06T12:59:01.824Z,100972.45
2023-03-06T13:01:49.313Z,100971.17
2023-03-06T13:04:56.607Z,100969.33
2023-03-06T13:07:44.277Z,100974.92
2023-03-06T13:10:35.883Z,100975.15
2023-03-06T13:13:41.158Z,100970.48
2023-03-06T13:16:15.862Z,100973.19
2023-03-06T13:18:44.313Z,100970.60
2023-03-06T13:21:56.485Z,100970.39
2023-03-06T13:24:39.770Z,100970.00
2023-03-06T13:27:45.455Z,100965.25
2023-03-06T13:30:38.516Z,100966.13
2023-03-06T13:33:32.396Z,100967.61
2023-03-06T13:36:39.811Z,100963.85
2023-03-06T13:39:13.014Z,100963.63
2023-03-06T13:41:59.717Z,100958.65
2023-03-06T13:44:30.584Z,100958.59
2023-03-06T13:47:19.226Z,100953.36
2023-03-06T13:49:48.345Z,100949.85
2023-03-06T13:52:53.692Z,100951.91
2023-03-06T13:56:07.830Z,100949.92
2023-03-06T13:59:01.301Z,100947.98
2023-03-06T14:01:39.428Z,100946.38
2023-03-06T14:04:41.735Z,100940.80
2023-03-06T14:07:24.123Z,100940.38
2023-03-06T14:10:13.206Z,100945.14
2023-03-06T14:12:53.927Z,100943.63
2023-03-06T14:15:50.011Z,100946.84
2023-03-06T14:18:18.395Z,100947.60
2023-03-06T14:21:12.960Z,100946.10
2023-03-06T14:23:44.483Z,100941.86
2023-03-06T14:26:24.873Z,100941.99
2023-03-06T14:28:59.006Z,100946.70
2023-03-06T14:31:34.088Z,100948.34
2023-03-06T14:34:19.611Z,100949.92
2023-03-06T14:36:51.174Z,100949.69
2023-03-06T14:39:42.766Z,100948.49
2023-03-06T14:42:24.565Z,100950.88
2023-03-06T14:45:05.718Z,100946.08
2023-03-06T14:47:36.285Z,100950.35
2023-03-06T14:50:29.715Z,100944.80
2023-03-06T14:53:14.497Z,100947.64
2023-03-06T14:56:07.285Z,100944.71
2023-03-06T15:22:50.279Z,100939.16
2023-03-06T15:25:31.762Z,100935.39
2023-03-06T15:28:19.862Z,100937.64
2023-03-06T15:31:10.668Z,100938.92
2023-03-06T15:33:39.088Z,100937.55
2023-03-06T15:36:29.087Z,100939.64
2023-03-06T15:39:01.923Z,100936.25
2023-03-06T15:41:35.260Z,100943.38
2023-03-06T15:44:14.594Z,100943.96
2023-03-06T15:46:42.778Z,100942.59
2023-03-06T15:49:16.702Z,100943.41
2023-03-06T15:51:54.686Z,100941.53
2023-03-06T15:54:24.896Z,100941.73
2023-03-06T15:56:53.794Z,100943.30
2023-03-06T15:59:32.990Z,100947.18
2023-03-06T16:02:17.181Z,100952.05
2023-03-06T16:04:47.987Z,100948.20
2023-03-06T16:07:17.027Z,100949.68
2023-03-06T16:09:45.290Z,100950.28
2023-03-06T16:12:17.787Z,100948.11
2023-03-06T16:14:49.226Z,100948.04
2023-03-06T16:17:17.723Z,100946.11
2023-03-06T16:19:45.971Z,100948.61
2023-03-06T16:22:16.830Z,100948.19
2023-03-06T16:24:45.691Z,100951.86
2023-03-06T16:27:22.936Z,100954.52
2023-03-06T16:29:52.996Z,100957.09
2023-03-06T16:32:21.291Z,100960.54
2023-03-06T16:34:49.777Z,100965.54
2023-03-06T16:37:18.339Z,100966.41
2023-03-06T16:39:46.544Z,100966.89
2023-03-06T16:42:17.060Z,100967.94
2023-03-06T16:44:45.932Z,100970.04
2023-03-06T16:47:14.016Z,100967.94
2023-03-06T16:49:42.233Z,100973.13
2023-03-06T16:52:11.019Z,100978.19
2023-03-06T16:54:40.305Z,100977.70
2023-03-06T16:57:15.573Z,100975.00
2023-03-06T16:59:44.030Z,100973.29
2023-03-06T17:02:14.394Z,100968.67
2023-03-06T17:04:42.609Z,100971.08
2023-03-06T17:07:10.826Z,100970.30
2023-03-06T17:09:39.235Z,100970.73
2023-03-06T17:12:09.615Z,100965.64
2023-03-06T17:14:37.969Z,100968.40
2023-03-06T17:17:06.357Z,100968.55
2023-03-06T17:19:35.104Z,100968.99
2023-03-06T17:22:16.279Z,100971.84
2023-03-06T17:24:49.274Z,100965.30
2023-03-06T17:27:21.942Z,100970.25
2023-03-06T17:29:51.193Z,100966.27
2023-03-06T17:32:19.387Z,100970.08
2023-03-06T17:34:47.650Z,100974.77
2023-03-06T17:37:15.826Z,100973.60
2023-03-06T17:39:43.995Z,100972.33
2023-03-06T17:42:12.266Z,100974.54
2023-03-06T17:44:40.664Z,100970.90
2023-03-06T17:47:10.939Z,100971.01
2023-03-06T17:49:39.248Z,100969.78
2023-03-06T17:52:09.074Z,100968.35
2023-03-06T17:54:37.091Z,100966.86
2023-03-06T17:57:09.886Z,100967.55
2023-03-06T17:59:46.292Z,100966.23
2023-03-06T18:02:15.449Z,100963.66
2023-03-06T18:04:43.800Z,100964.79
2023-03-06T18:07:13.581Z,100964.44
2023-03-06T18:09:42.524Z,100963.56
2023-03-06T18:12:12.124Z,100966.77
2023-03-06T18:14:42.889Z,100968.13
2023-03-06T18:17:10.939Z,100966.91
2023-03-06T18:19:39.124Z,100967.90
2023-03-06T18:22:08.531Z,100970.05
2023-03-06T18:24:39.291Z,100970.55
2023-03-06T18:27:07.369Z,100974.70
2023-03-06T18:29:35.440Z,100976.20
2023-03-06T18:32:06.728Z,100975.66
2023-03-06T18:34:38.501Z,100975.14
2023-03-06T18:37:06.785Z,100975.70
2023-03-06T18:39:34.841Z,100971.77
2023-03-06T18:42:06.711Z,100977.17
2023-03-06T18:44:34.913Z,100977.54
2023-03-06T18:47:04.850Z,100973.16
2023-03-06T18:49:32.952Z,100976.91
2023-03-06T18:52:01.202Z,100978.88
2023-03-06T18:54:29.815Z,100980.42
2023-03-06T18:56:58.534Z,100976.11
2023-03-06T18:59:30.111Z,100977.71
2023-03-06T19:01:59.077Z,100983.21
2023-03-06T19:04:27.728Z,100982.76
2023-03-06T19:06:56.602Z,100976.70
2023-03-06T19:09:25.712Z,100977.15
2023-03-06T19:11:54.967Z,100974.95
2023-03-06T19:14:24.624Z,100980.13
2023-03-06T19:16:53.027Z,100978.15
2023-03-06T19:19:25.701Z,100976.84
2023-03-06T19:21:57.566Z,100975.10
2023-03-06T19:24:30.832Z,100976.20
2023-03-06T19:26:59.299Z,100979.09
2023-03-06T19:29:28.079Z,100982.63
2023-03-06T19:31:59.062Z,100985.23
2023-03-06T19:34:34.965Z,100991.42
2023-03-06T19:37:03.987Z,100989.88
2023-03-06T19:39:32.237Z,100992.85
2023-03-06T19:42:00.449Z,100994.63
2023-03-06T19:44:28.814Z,100998.41
2023-03-06T19:46:57.251Z,101002.09
2023-03-06T19:49:27.947Z,101001.98
2023-03-06T19:51:56.204Z,101003.55
2023-03-06T19:54:26.312Z,100999.88
2023-03-06T19:56:54.411Z,101001.56
2023-03-06T19:59:22.459Z,101001.90
2023-03-06T20:01:50.621Z,100997.52
2023-03-06T20:04:19.067Z,101000.96
2023-03-06T20:06:50.114Z,100996.61
2023-03-06T20:09:19.013Z,100996.96
2023-03-06T20:11:49.053Z,100993.45
2023-03-06T20:14:18.580Z,100991.80
2023-03-06T20:16:47.023Z,100986.98
2023-03-06T20:19:15.544Z,100982.50
2023-03-06T20:21:48.024Z,100986.17
2023-03-06T20:24:18.310Z,100991.39
2023-03-06T20:26:49.209Z,100989.56
2023-03-06T20:29:18.028Z,100987.76
2023-03-06T20:31:46.142Z,100985.10
2023-03-06T20:34:14.385Z,100980.56
2023-03-06T20:36:42.392Z,100979.45
2023-03-06T20:39:17.181Z,100977.78
2023-03-06T20:41:46.265Z,100975.47
2023-03-06T20:44:19.437Z,100972.48
2023-03-06T20:46:47.617Z,100970.73
2023-03-06T20:49:15.881Z,100973.82
2023-03-06T20:51:47.019Z,100971.45
2023-03-06T20:54:16.489Z,100972.96
2023-03-06T20:56:48.700Z,100975.75
2023-03-06T20:59:19.762Z,100974.30
2023-03-06T21:01:48.563Z,100968.89
2023-03-06T21:04:16.889Z,100969.52
2023-03-06T21:06:45.849Z,100969.79
2023-03-06T21:09:16.852Z,100964.76
2023-03-06T21:11:45.515Z,100962.02
2023-03-06T21:14:14.658Z,100960.66
2023-03-06T21:16:45.200Z,100957.06
2023-03-06T21:19:14.614Z,100956.36
2023-03-06T21:21:42.834Z,100952.20
2023-03-06T21:24:10.884Z,100947.92
2023-03-06T21:26:39.246Z,100950.42
2023-03-06T21:29:07.895Z,100950.20
2023-03-06T21:31:36.224Z,100945.39
2023-03-06T21:34:05.864Z,100944.78
2023-03-06T21:36:34.100Z,100941.52
2023-03-06T21:39:05.618Z,100934.85
2023-03-06T21:41:35.177Z,100928.02
2023-03-06T21:44:05.591Z,100919.77
2023-03-06T21:46:35.096Z,100915.98
2023-03-06T21:49:05.833Z,100913.35
2023-03-06T21:51:34.739Z,100908.42
2023-03-06T21:54:05.038Z,100904.98
2023-03-06T21:56:35.633Z,100901.36
2023-03-06T21:59:04.711Z,100897.88
2023-03-06T22:01:32.861Z,100899.07
2023-03-06T22:04:02.372Z,100896.92
2023-03-06T22:06:32.524Z,100897.21
2023-03-06T22:09:01.090Z,100900.45
2023-03-06T22:11:30.989Z,100900.89
2023-03-06T22:13:59.638Z,100900.73
2023-03-06T22:16:28.323Z,100901.92
2023-03-06T22:18:59.631Z,100905.55
2023-03-06T22:21:27.700Z,100908.80
2023-03-06T22:23:58.047Z,100905.59
2023-03-06T22:26:28.413Z,100905.60
2023-03-06T22:28:56.722Z,100905.50
2023-03-06T22:31:28.943Z,100909.78
2023-03-06T22:34:01.131Z,100910.66
2023-03-06T22:36:31.384Z,100912.50
2023-03-06T22:39:04.081Z,100910.26
2023-03-06T22:41:33.080Z,100901.41
2023-03-06T22:44:03.554Z,100891.20
2023-03-06T22:46:32.422Z,100887.80
2023-03-06T22:49:01.540Z,100886.67
2023-03-06T22:51:31.850Z,100879.45
2023-03-06T22:54:05.231Z,100880.48
2023-03-06T22:56:33.633Z,100876.43
2023-03-06T22:59:02.111Z,100872.63
2023-03-06T23:01:33.669Z,100875.31
2023-03-06T23:04:07.765Z,100876.55
2023-03-06T23:06:40.678Z,100874.86
2023-03-06T23:09:20.014Z,100873.73
2023-03-06T23:12:08.464Z,100868.05
2023-03-06T23:14:55.035Z,100863.95
2023-03-06T23:17:41.205Z,100852.15
2023-03-06T23:20:29.429Z,100849.71
2023-03-06T23:23:23.329Z,100853.69
2023-03-06T23:25:52.406Z,100856.73
2023-03-06T23:28:20.622Z,100861.84
2023-03-06T23:30:48.623Z,100865.27
2023-03-06T23:33:17.120Z,100864.14
2023-03-06T23:35:46.108Z,100862.19
2023-03-06T23:38:14.190Z,100860.98
2023-03-06T23:40:43.508Z,100857.39
2023-03-06T23:43:11.549Z,100857.36
2023-03-06T23:45:41.048Z,100853.11
2023-03-06T23:48:10.305Z,100847.39
2023-03-06T23:50:40.554Z,100841.73
2023-03-06T23:53:08.561Z,100845.39
2023-03-06T23:55:40.833Z,100852.15
2023-03-06T23:58:11.254Z,100858.38
